Booker, TX (79005)

1:41 PM CDT on July 31, 2014 (GMT -0500)
Zender Laundromat (KTXBOOKE2) Elev 2844 ft | 36.45 °N, 100.54 °W | Change Station

Current weather conditions updated 5 seconds ago

Mostly Cloudy
Mostly Cloudy
82.0 °F
Feels Like 83 °F
N
2.2
Wind Variable Wind from NW
Gusts 6.9 mph

Today is forecast to be Much Warmer than yesterday.

Today
High -- | Low -- °F
--% Chance of Precip.
Yesterday
High -- | Low -- °F
Precip. -- in
6:47 AM 8:48 PM
Waxing Crescent, 20% visible
Pressure 30.20 in
Visibility 10.0 miles
Clouds Scattered Clouds 4000 ft
Mostly Cloudy 4700 ft
Mostly Cloudy 5500 ft
Heat Index 83 °F
Dew Point 62 °F
Humidity 51%
Rainfall 0.00 in
Snow Depth Not available.
UV 6 out of 12
Pollen 6.40 out of 12
Air Quality Not available.
Flu Activity Not available.
METAR KPYX 311835Z AUTO 06004KT 10SM SCT040 BKN047 BKN055 24/13 A3020 RMK AO2 T02400129

More Conditions Fewer Conditions

Pressure 30.20 in
Visibility 10.0 miles
Clouds Scattered Clouds 4000 ft
Mostly Cloudy 4700 ft
Mostly Cloudy 5500 ft
Heat Index 83 °F
Dew Point 62 °F
Humidity 51%
Rainfall 0.00 in
Snow Depth Not available.
UV 6 out of 12
Pollen 6.40 out of 12
Air Quality Not available.
Flu Activity Not available.
METAR KPYX 311835Z AUTO 06004KT 10SM SCT040 BKN047 BKN055 24/13 A3020 RMK AO2 T02400129

More Conditions Fewer Conditions

10-Day Weather Forecast

Almanac

Astronomy

Jul. 31, 2014 Rise Set
Actual Time 6:47 AM CDT 8:48 PM CDT
Civil Twilight 6:19 AM CDT 9:17 PM CDT
Nautical Twilight 5:44 AM CDT 9:51 PM CDT
Astronomical Twilight 5:07 AM CDT 10:29 PM CDT
Moon 11:07 AM CDT 11:12 PM CDT
Length of Visible Light 14h 58m
Length of Day
14h 01m
Tomorrow will be 1m 44s shorter.
Waxing Crescent, 20% of the Moon is Illuminated
Today
Waxing Crescent
Aug 3
First Quarter
Aug 10
Full
Aug 17
Last Quarter
Aug 25
New

Today's Extremes

State Highs State Lows

Community

WunderPhotos

Upload Photos

1,739,422 photos uploaded!

Nearby

Snow Depth

Station Depth Elevation
No new snow has been reported.

Earthquake Activity

City Distance Mag. Time & Date
No recent earthquake activity has been reported nearby.
Minimum magnitude displayed is 2.5.

Coastal Water Temperatures

Place Temperature
No Stations Reporting

Nearby Weather Stations

Station Location Temp. Heat Index Dew Point Humidity Wind Precip. Elev Updated Type
Zender Laundromat, Booker, TX 82.0 °F 83 °F 62 °F 51% NW  at  2.2 mph 0.00 in / hr 2844 ft 1:41 PM CDT Rapid Fire

Show More Stations Show Fewer Stations